createdAt,value
2018-11-29T00:00:38.787Z,101075.00
2018-11-29T00:03:08.376Z,101074.00
2018-11-29T00:05:36.597Z,101068.00
2018-11-29T00:08:05.770Z,101067.00
2018-11-29T00:10:34.119Z,101072.00
2018-11-29T00:13:02.753Z,101076.00
2018-11-29T00:15:30.972Z,101075.00
2018-11-29T00:17:59.063Z,101064.00
2018-11-29T00:20:27.440Z,101072.00
2018-11-29T00:22:55.589Z,101065.00
2018-11-29T00:25:23.714Z,101076.00
2018-11-29T00:27:51.974Z,101079.00
2018-11-29T00:30:22.072Z,101071.00
2018-11-29T00:32:51.491Z,101060.00
2018-11-29T00:35:19.715Z,101072.00
2018-11-29T00:37:47.982Z,101068.00
2018-11-29T00:40:22.188Z,101073.00
2018-11-29T00:42:50.437Z,101062.00
2018-11-29T00:45:20.400Z,101069.00
2018-11-29T00:47:48.806Z,101061.00
2018-11-29T00:50:18.296Z,101060.00
2018-11-29T00:52:48.872Z,101042.00
2018-11-29T00:55:21.754Z,101053.00
2018-11-29T00:57:50.585Z,101047.00
2018-11-29T01:00:23.198Z,101050.00
2018-11-29T01:02:51.388Z,101049.00
2018-11-29T01:05:19.651Z,101060.00
2018-11-29T01:07:47.937Z,101051.00
2018-11-29T01:10:17.726Z,101062.00
2018-11-29T01:12:46.848Z,101058.00
2018-11-29T01:15:19.421Z,101062.00
2018-11-29T01:17:48.840Z,101062.00
2018-11-29T01:20:18.768Z,101065.00
2018-11-29T01:22:47.026Z,101064.00
2018-11-29T01:25:15.630Z,101062.00
2018-11-29T01:27:47.378Z,101053.00
2018-11-29T01:30:16.951Z,101046.00
2018-11-29T01:32:45.046Z,101035.00
2018-11-29T01:35:14.835Z,101038.00
2018-11-29T01:37:43.000Z,101018.00
2018-11-29T01:40:16.542Z,101013.00
2018-11-29T01:42:48.106Z,101025.00
2018-11-29T01:45:16.262Z,101016.00
2018-11-29T01:47:44.342Z,101013.00
2018-11-29T01:50:12.628Z,101031.00
2018-11-29T01:52:40.791Z,101023.00
2018-11-29T01:55:09.400Z,101026.00
2018-11-29T01:57:37.602Z,101046.00
2018-11-29T02:00:10.337Z,101052.00
2018-11-29T02:02:38.395Z,101058.00
2018-11-29T02:05:09.003Z,101062.00
2018-11-29T02:07:37.170Z,101041.00
2018-11-29T02:10:15.224Z,101043.00
2018-11-29T02:12:43.394Z,101039.00
2018-11-29T02:15:12.185Z,101039.00
2018-11-29T02:17:40.422Z,101026.00
2018-11-29T02:20:11.040Z,101033.00
2018-11-29T02:22:39.193Z,101024.00
2018-11-29T02:25:08.114Z,101032.00
2018-11-29T02:27:36.122Z,101021.00
2018-11-29T02:30:09.552Z,101016.00
2018-11-29T02:32:37.644Z,101010.00
2018-11-29T02:35:06.421Z,101010.00
2018-11-29T02:37:34.442Z,101000.00
2018-11-29T02:40:02.682Z,101017.00
2018-11-29T02:42:30.830Z,101019.00
2018-11-29T02:44:59.023Z,101024.00
2018-11-29T02:47:27.059Z,101018.00
2018-11-29T02:49:55.395Z,101018.00
2018-11-29T02:52:23.482Z,101010.00
2018-11-29T02:54:51.587Z,101011.00
2018-11-29T02:57:20.051Z,101008.00
2018-11-29T02:59:48.190Z,101008.00
2018-11-29T03:02:16.400Z,101015.00
2018-11-29T03:04:44.693Z,101012.00
2018-11-29T03:07:12.942Z,101006.00
2018-11-29T03:09:41.101Z,101008.00
2018-11-29T03:12:09.265Z,101003.00
2018-11-29T03:14:37.359Z,100996.00
2018-11-29T03:17:05.929Z,100993.00
2018-11-29T03:19:34.103Z,100986.00
2018-11-29T03:22:02.309Z,100973.00
2018-11-29T03:24:30.399Z,100962.00
2018-11-29T03:26:59.147Z,100966.00
2018-11-29T03:29:27.208Z,100971.00
2018-11-29T03:31:55.331Z,100963.00
2018-11-29T03:34:23.528Z,100954.00
2018-11-29T03:36:52.409Z,100956.00
2018-11-29T03:39:20.534Z,100953.00
2018-11-29T03:41:48.886Z,100942.00
2018-11-29T03:44:17.095Z,100936.00
2018-11-29T03:46:45.907Z,100923.00
2018-11-29T03:49:14.038Z,100925.00
2018-11-29T03:51:42.141Z,100913.00
2018-11-29T03:54:10.262Z,100917.00
2018-11-29T03:56:38.384Z,100928.00
2018-11-29T03:59:06.755Z,100928.00
2018-11-29T04:01:34.827Z,100929.00
2018-11-29T04:04:03.019Z,100931.00
2018-11-29T04:06:31.121Z,100923.00
2018-11-29T04:08:59.182Z,100918.00
2018-11-29T04:11:27.424Z,100930.00
2018-11-29T04:13:55.482Z,100935.00
2018-11-29T04:16:23.590Z,100937.00
2018-11-29T04:18:51.787Z,100941.00
2018-11-29T04:21:19.874Z,100946.00
2018-11-29T04:23:48.219Z,100936.00
2018-11-29T04:26:16.358Z,100933.00
2018-11-29T04:28:45.335Z,100935.00
2018-11-29T04:31:13.406Z,100948.00
2018-11-29T04:33:41.522Z,100945.00
2018-11-29T04:36:09.718Z,100956.00
2018-11-29T04:38:38.287Z,100961.00
2018-11-29T04:41:06.327Z,100953.00
2018-11-29T04:43:34.466Z,100957.00
2018-11-29T04:46:48.738Z,100958.00
2018-11-29T04:49:16.865Z,100957.00
2018-11-29T04:51:49.236Z,100949.00
2018-11-29T04:54:17.282Z,100946.00
2018-11-29T04:56:45.563Z,100933.00
2018-11-29T04:59:13.775Z,100925.00
2018-11-29T05:01:42.674Z,100921.00
2018-11-29T05:04:10.945Z,100915.00
2018-11-29T05:06:39.106Z,100922.00
2018-11-29T05:09:13.272Z,100928.00
2018-11-29T05:11:41.439Z,100929.00
2018-11-29T05:14:09.766Z,100924.00
2018-11-29T05:16:44.813Z,100921.00
2018-11-29T05:19:19.601Z,100913.00
2018-11-29T05:21:47.799Z,100908.00
2018-11-29T05:24:16.246Z,100914.00
2018-11-29T05:26:44.455Z,100918.00
2018-11-29T05:29:12.711Z,100912.00
2018-11-29T05:31:40.970Z,100904.00
2018-11-29T05:34:09.293Z,100903.00
2018-11-29T05:36:37.843Z,100898.00
2018-11-29T05:39:07.294Z,100901.00
2018-11-29T05:41:35.933Z,100895.00
2018-11-29T05:44:04.296Z,100885.00
2018-11-29T05:46:32.734Z,100877.00
2018-11-29T05:49:01.096Z,100886.00
2018-11-29T05:51:29.360Z,100899.00
2018-11-29T05:53:57.574Z,100883.00
2018-11-29T05:56:25.814Z,100877.00
2018-11-29T05:58:53.952Z,100880.00
2018-11-29T06:01:26.578Z,100880.00
2018-11-29T06:03:54.860Z,100893.00
2018-11-29T06:06:23.143Z,100885.00
2018-11-29T06:08:51.363Z,100879.00
2018-11-29T06:11:19.598Z,100882.00
2018-11-29T06:13:47.878Z,100878.00
2018-11-29T06:16:16.166Z,100881.00
2018-11-29T06:18:44.400Z,100877.00
2018-11-29T06:21:13.626Z,100884.00
2018-11-29T06:23:41.979Z,100888.00
2018-11-29T06:26:10.435Z,100887.00
2018-11-29T06:28:38.943Z,100885.00
2018-11-29T06:31:07.447Z,100876.00
2018-11-29T06:33:35.853Z,100873.00
2018-11-29T06:36:04.592Z,100877.00
2018-11-29T06:38:34.109Z,100875.00
2018-11-29T06:41:02.447Z,100872.00
2018-11-29T06:43:31.043Z,100888.00
2018-11-29T06:45:59.412Z,100888.00
2018-11-29T06:48:27.623Z,100879.00
2018-11-29T06:50:55.703Z,100882.00
2018-11-29T06:53:29.563Z,100882.00
2018-11-29T06:55:57.642Z,100878.00
2018-11-29T06:58:25.758Z,100879.00
2018-11-29T07:00:53.907Z,100882.00
2018-11-29T07:03:22.077Z,100867.00
2018-11-29T07:05:50.263Z,100865.00
2018-11-29T07:08:18.741Z,100866.00
2018-11-29T07:10:46.930Z,100857.00
2018-11-29T07:13:15.265Z,100846.00
2018-11-29T07:18:18.563Z,100849.00
2018-11-29T07:21:03.959Z,100856.00
2018-11-29T07:23:32.277Z,100853.00
2018-11-29T07:26:01.200Z,100855.00
2018-11-29T07:28:34.250Z,100859.00
2018-11-29T07:31:02.583Z,100851.00
2018-11-29T07:33:30.909Z,100855.00
2018-11-29T07:35:59.103Z,100857.00
2018-11-29T07:38:27.306Z,100852.00
2018-11-29T07:40:55.637Z,100843.00
2018-11-29T07:43:23.983Z,100845.00
2018-11-29T07:45:52.192Z,100844.00
2018-11-29T07:48:20.635Z,100852.00
2018-11-29T07:50:48.859Z,100857.00
2018-11-29T07:53:17.223Z,100859.00
2018-11-29T07:55:45.483Z,100851.00
2018-11-29T07:58:13.990Z,100847.00
2018-11-29T08:00:42.285Z,100851.00
2018-11-29T08:03:10.580Z,100851.00
2018-11-29T08:05:39.103Z,100857.00
2018-11-29T08:08:07.301Z,100853.00
2018-11-29T08:10:35.531Z,100845.00
2018-11-29T08:13:04.097Z,100845.00
2018-11-29T08:15:32.633Z,100857.00
2018-11-29T08:18:00.809Z,100860.00
2018-11-29T08:20:29.126Z,100861.00
2018-11-29T08:22:57.362Z,100871.00
2018-11-29T08:25:25.889Z,100855.00
2018-11-29T08:27:54.225Z,100851.00
2018-11-29T08:30:22.711Z,100849.00
2018-11-29T08:32:50.974Z,100846.00
2018-11-29T08:35:19.289Z,100839.00
2018-11-29T08:37:47.631Z,100850.00
2018-11-29T08:40:21.562Z,100844.00
2018-11-29T08:42:49.864Z,100837.00
2018-11-29T08:45:18.139Z,100837.00
2018-11-29T08:47:46.754Z,100827.00
2018-11-29T08:50:15.439Z,100837.00
2018-11-29T08:52:45.212Z,100825.00
2018-11-29T08:55:17.321Z,100826.00
2018-11-29T08:57:46.581Z,100826.00
2018-11-29T09:00:16.506Z,100826.00
2018-11-29T09:02:44.896Z,100830.00
2018-11-29T09:05:13.891Z,100822.00
2018-11-29T09:07:43.636Z,100822.00
2018-11-29T09:10:20.298Z,100820.00
2018-11-29T09:12:48.793Z,100806.00
2018-11-29T09:15:17.499Z,100818.00
2018-11-29T09:17:45.979Z,100824.00
2018-11-29T09:20:20.349Z,100821.00
2018-11-29T09:22:48.718Z,100824.00
2018-11-29T09:25:21.900Z,100831.00
2018-11-29T09:27:50.480Z,100822.00
2018-11-29T09:30:22.669Z,100822.00
2018-11-29T09:32:52.603Z,100828.00
2018-11-29T09:35:23.825Z,100818.00
2018-11-29T09:37:52.320Z,100815.00
2018-11-29T09:40:20.856Z,100812.00
2018-11-29T09:42:49.190Z,100808.00
2018-11-29T09:45:19.286Z,100813.00
2018-11-29T09:47:49.552Z,100805.00
2018-11-29T09:50:18.197Z,100802.00
2018-11-29T09:52:46.821Z,100797.00
2018-11-29T09:55:20.049Z,100806.00
2018-11-29T09:57:49.880Z,100805.00
2018-11-29T10:00:28.582Z,100803.00
2018-11-29T10:03:06.238Z,100795.00
2018-11-29T10:05:34.914Z,100804.00
2018-11-29T10:08:03.334Z,100802.00
2018-11-29T10:10:32.337Z,100792.00
2018-11-29T10:13:01.243Z,100791.00
2018-11-29T10:15:29.890Z,100789.00
2018-11-29T10:17:58.290Z,100786.00
2018-11-29T10:20:27.552Z,100783.00
2018-11-29T10:22:56.297Z,100778.00
2018-11-29T10:25:24.772Z,100778.00
2018-11-29T10:28:01.693Z,100787.00
2018-11-29T10:30:34.614Z,100775.00
2018-11-29T10:33:02.964Z,100757.00
2018-11-29T10:35:31.926Z,100767.00
2018-11-29T10:38:00.393Z,100755.00
2018-11-29T10:40:29.036Z,100765.00
2018-11-29T10:42:57.860Z,100769.00
2018-11-29T10:45:25.984Z,100756.00
2018-11-29T10:47:55.270Z,100763.00
2018-11-29T10:50:23.529Z,100760.00
2018-11-29T10:52:51.907Z,100753.00
2018-11-29T10:55:20.804Z,100754.00
2018-11-29T10:57:49.626Z,100740.00
2018-11-29T11:00:30.574Z,100744.00
2018-11-29T11:03:21.643Z,100750.00
2018-11-29T11:05:51.664Z,100737.00
2018-11-29T11:08:20.528Z,100738.00
2018-11-29T11:10:48.887Z,100740.00
2018-11-29T11:13:17.174Z,100737.00
2018-11-29T11:15:45.461Z,100735.00
2018-11-29T11:18:15.164Z,100732.00
2018-11-29T11:20:43.994Z,100732.00
2018-11-29T11:23:12.713Z,100726.00
2018-11-29T11:25:41.335Z,100729.00
2018-11-29T11:28:10.254Z,100723.00
2018-11-29T11:30:42.330Z,100730.00
2018-11-29T11:33:10.796Z,100716.00
2018-11-29T11:35:39.216Z,100712.00
2018-11-29T11:38:07.432Z,100722.00
2018-11-29T11:40:35.795Z,100725.00
2018-11-29T11:43:05.226Z,100701.00
2018-11-29T11:45:32.711Z,100707.00
2018-11-29T11:48:03.388Z,100702.00
2018-11-29T11:50:29.691Z,100703.00
2018-11-29T11:52:57.935Z,100702.00
2018-11-29T11:55:29.969Z,100698.00
2018-11-29T11:57:54.657Z,100698.00
2018-11-29T12:00:27.449Z,100690.00
2018-11-29T12:03:08.289Z,100690.00
2018-11-29T12:05:37.294Z,100689.00
2018-11-29T12:08:06.044Z,100684.00
2018-11-29T12:10:34.627Z,100684.00
2018-11-29T12:13:03.128Z,100683.00
2018-11-29T12:15:32.763Z,100682.00
2018-11-29T12:18:01.164Z,100675.00
2018-11-29T12:20:29.563Z,100669.00
2018-11-29T12:22:57.935Z,100664.00
2018-11-29T12:25:26.744Z,100655.00
2018-11-29T12:27:55.374Z,100647.00
2018-11-29T12:30:28.816Z,100647.00
2018-11-29T12:33:01.015Z,100648.00
2018-11-29T12:35:29.518Z,100644.00
2018-11-29T12:37:57.917Z,100641.00
2018-11-29T12:40:26.477Z,100646.00
2018-11-29T12:42:54.912Z,100637.00
2018-11-29T12:45:23.802Z,100630.00
2018-11-29T12:47:52.136Z,100625.00
2018-11-29T12:50:22.806Z,100619.00
2018-11-29T12:52:51.131Z,100619.00
2018-11-29T12:55:22.047Z,100616.00
2018-11-29T12:58:04.446Z,100601.00
2018-11-29T13:00:20.518Z,100595.00
2018-11-29T13:02:53.348Z,100591.00
2018-11-29T13:05:21.897Z,100590.00
2018-11-29T13:07:50.307Z,100588.00
2018-11-29T13:10:21.059Z,100592.00
2018-11-29T13:12:49.552Z,100581.00
2018-11-29T13:15:21.218Z,100577.00
2018-11-29T13:17:49.489Z,100559.00
2018-11-29T13:20:17.874Z,100559.00
2018-11-29T13:22:47.083Z,100559.00
2018-11-29T13:25:17.193Z,100566.00
2018-11-29T13:27:45.639Z,100561.00
2018-11-29T13:30:17.420Z,100555.00
2018-11-29T13:32:46.248Z,100540.00
2018-11-29T13:35:18.646Z,100556.00
2018-11-29T13:37:53.796Z,100526.00
2018-11-29T13:40:22.123Z,100521.00
2018-11-29T13:42:50.554Z,100524.00
2018-11-29T13:45:18.879Z,100521.00
2018-11-29T13:47:47.198Z,100524.00
2018-11-29T13:50:16.593Z,100544.00
2018-11-29T13:52:45.340Z,100545.00
2018-11-29T13:55:15.553Z,100535.00
2018-11-29T13:57:46.601Z,100542.00
2018-11-29T14:00:19.539Z,100550.00
2018-11-29T14:02:53.091Z,100540.00
2018-11-29T14:05:21.334Z,100542.00
2018-11-29T14:07:49.691Z,100556.00
2018-11-29T14:10:20.947Z,100552.00
2018-11-29T14:12:52.352Z,100556.00
2018-11-29T14:15:24.092Z,100558.00
2018-11-29T14:17:52.471Z,100561.00
2018-11-29T14:20:20.665Z,100558.00
2018-11-29T14:22:48.825Z,100551.00
2018-11-29T14:25:17.462Z,100550.00
2018-11-29T14:27:48.829Z,100549.00
2018-11-29T14:30:25.419Z,100542.00
2018-11-29T14:32:55.063Z,100529.00
2018-11-29T14:35:23.264Z,100502.00
2018-11-29T14:37:51.437Z,100493.00
2018-11-29T14:40:22.533Z,100449.00
2018-11-29T14:42:50.845Z,100408.00
2018-11-29T14:45:22.644Z,100381.00
2018-11-29T14:47:51.602Z,100382.00
2018-11-29T14:50:31.917Z,100445.00
2018-11-29T14:53:01.104Z,100499.00
2018-11-29T14:55:29.381Z,100434.00
2018-11-29T14:57:57.754Z,100458.00
2018-11-29T15:00:25.932Z,100493.00
2018-11-29T15:02:54.852Z,100453.00
2018-11-29T15:05:27.110Z,100461.00
2018-11-29T15:07:55.503Z,100469.00
2018-11-29T15:10:23.861Z,100454.00
2018-11-29T15:12:52.444Z,100458.00
2018-11-29T15:15:20.912Z,100492.00
2018-11-29T15:17:50.725Z,100498.00
2018-11-29T15:20:32.498Z,100486.00
2018-11-29T15:23:00.838Z,100493.00
2018-11-29T15:25:29.220Z,100507.00
2018-11-29T15:27:57.669Z,100534.00
2018-11-29T15:30:25.894Z,100523.00
2018-11-29T15:32:54.157Z,100527.00
2018-11-29T15:35:22.717Z,100521.00
2018-11-29T15:37:51.161Z,100509.00
2018-11-29T15:40:19.660Z,100504.00
2018-11-29T15:42:47.925Z,100503.00
2018-11-29T15:45:25.331Z,100472.00
2018-11-29T15:47:53.570Z,100395.00
2018-11-29T15:50:21.916Z,100401.00
2018-11-29T15:52:50.166Z,100412.00
2018-11-29T15:55:20.101Z,100406.00
2018-11-29T15:57:50.392Z,100412.00
2018-11-29T16:00:21.334Z,100393.00
2018-11-29T16:02:50.392Z,100401.00
2018-11-29T16:05:18.950Z,100398.00
2018-11-29T16:07:47.394Z,100423.00
2018-11-29T16:10:18.662Z,100415.00
2018-11-29T16:12:53.589Z,100412.00
2018-11-29T16:15:22.256Z,100409.00
2018-11-29T16:17:51.862Z,100399.00
2018-11-29T16:20:29.745Z,100396.00
2018-11-29T16:22:58.136Z,100395.00
2018-11-29T16:25:26.505Z,100394.00
2018-11-29T16:27:55.058Z,100395.00
2018-11-29T16:30:57.592Z,100398.00
2018-11-29T16:33:34.681Z,100392.00
2018-11-29T16:36:03.101Z,100385.00
2018-11-29T16:38:31.504Z,100394.00
2018-11-29T16:40:59.805Z,100374.00
2018-11-29T16:43:28.093Z,100373.00
2018-11-29T16:45:56.461Z,100370.00
2018-11-29T16:48:31.497Z,100358.00
2018-11-29T16:50:59.739Z,100355.00
2018-11-29T16:53:27.971Z,100361.00
2018-11-29T16:55:56.326Z,100366.00
2018-11-29T16:58:28.695Z,100373.00
2018-11-29T17:00:57.240Z,100368.00
2018-11-29T17:03:25.675Z,100363.00
2018-11-29T17:05:54.200Z,100367.00
2018-11-29T17:08:22.722Z,100374.00
2018-11-29T17:10:51.144Z,100363.00
2018-11-29T17:13:19.776Z,100368.00
2018-11-29T17:15:48.122Z,100367.00
2018-11-29T17:18:16.552Z,100376.00
2018-11-29T17:20:44.908Z,100378.00
2018-11-29T17:23:13.394Z,100374.00
2018-11-29T17:25:43.312Z,100372.00
2018-11-29T17:28:11.783Z,100377.00
2018-11-29T17:30:40.321Z,100367.00
2018-11-29T17:33:09.563Z,100373.00
2018-11-29T17:35:37.950Z,100376.00
2018-11-29T17:38:06.917Z,100370.00
2018-11-29T17:40:36.737Z,100365.00
2018-11-29T17:43:05.717Z,100361.00
2018-11-29T17:45:34.030Z,100364.00
2018-11-29T17:48:10.901Z,100368.00
2018-11-29T17:50:40.870Z,100365.00
2018-11-29T17:53:09.397Z,100372.00
2018-11-29T17:55:38.078Z,100368.00
2018-11-29T17:58:12.488Z,100381.00
2018-11-29T18:00:42.004Z,100362.00
2018-11-29T18:03:10.690Z,100358.00
2018-11-29T18:05:39.245Z,100343.00
2018-11-29T18:08:07.588Z,100355.00
2018-11-29T18:10:38.749Z,100358.00
2018-11-29T18:13:14.350Z,100361.00
2018-11-29T18:15:43.106Z,100376.00
2018-11-29T18:18:11.778Z,100373.00
2018-11-29T18:20:40.234Z,100371.00
2018-11-29T18:23:09.496Z,100374.00
2018-11-29T18:25:37.863Z,100375.00
2018-11-29T18:28:07.285Z,100368.00
2018-11-29T18:30:35.668Z,100377.00
2018-11-29T18:33:04.357Z,100374.00
2018-11-29T18:35:32.854Z,100376.00
2018-11-29T18:38:01.279Z,100379.00
2018-11-29T18:40:29.693Z,100387.00
2018-11-29T18:42:59.355Z,100400.00
2018-11-29T18:45:28.106Z,100392.00
2018-11-29T18:47:56.476Z,100391.00
2018-11-29T18:50:25.917Z,100392.00
2018-11-29T18:52:54.355Z,100388.00
2018-11-29T18:55:25.936Z,100377.00
2018-11-29T18:58:01.522Z,100368.00
2018-11-29T19:00:32.068Z,100361.00
2018-11-29T19:03:00.440Z,100366.00
2018-11-29T19:05:29.010Z,100369.00
2018-11-29T19:07:57.357Z,100362.00
2018-11-29T19:10:25.908Z,100374.00
2018-11-29T19:13:14.220Z,100369.00
2018-11-29T19:15:42.543Z,100357.00
2018-11-29T19:18:11.101Z,100371.00
2018-11-29T19:20:39.496Z,100371.00
2018-11-29T19:23:07.983Z,100372.00
2018-11-29T19:25:36.566Z,100365.00
2018-11-29T19:28:06.678Z,100367.00
2018-11-29T19:30:35.339Z,100370.00
2018-11-29T19:33:17.382Z,100383.00
2018-11-29T19:35:43.099Z,100394.00
2018-11-29T19:38:11.501Z,100388.00
2018-11-29T19:40:40.057Z,100387.00
2018-11-29T19:43:08.660Z,100383.00
2018-11-29T19:45:37.147Z,100391.00
2018-11-29T19:48:08.335Z,100395.00
2018-11-29T19:50:36.677Z,100394.00
2018-11-29T19:53:12.170Z,100401.00
2018-11-29T19:55:40.722Z,100398.00
2018-11-29T19:58:09.138Z,100392.00
2018-11-29T20:00:37.892Z,100398.00
2018-11-29T20:03:07.030Z,100392.00
2018-11-29T20:05:35.697Z,100390.00
2018-11-29T20:08:05.431Z,100386.00
2018-11-29T20:10:34.380Z,100376.00
2018-11-29T20:13:04.964Z,100382.00
2018-11-29T20:15:39.381Z,100378.00
2018-11-29T20:18:09.951Z,100380.00
2018-11-29T20:20:38.494Z,100380.00
2018-11-29T20:23:08.648Z,100382.00
2018-11-29T20:25:37.195Z,100383.00
2018-11-29T20:28:06.150Z,100379.00
2018-11-29T20:30:35.192Z,100386.00
2018-11-29T20:33:03.917Z,100385.00
2018-11-29T20:35:32.318Z,100387.00
2018-11-29T20:38:00.881Z,100391.00
2018-11-29T20:40:33.515Z,100390.00
2018-11-29T20:43:02.167Z,100389.00
2018-11-29T20:45:35.779Z,100388.00
2018-11-29T20:48:16.942Z,100379.00
2018-11-29T20:50:45.384Z,100384.00
2018-11-29T20:53:19.368Z,100379.00
2018-11-29T20:55:47.869Z,100384.00
2018-11-29T20:58:16.451Z,100385.00
2018-11-29T21:00:44.797Z,100393.00
2018-11-29T21:03:13.226Z,100386.00
2018-11-29T21:05:42.641Z,100392.00
2018-11-29T21:08:11.956Z,100385.00
2018-11-29T21:10:40.591Z,100386.00
2018-11-29T21:13:09.018Z,100384.00
2018-11-29T21:15:39.754Z,100388.00
2018-11-29T21:18:13.671Z,100380.00
2018-11-29T21:20:42.935Z,100379.00
2018-11-29T21:23:15.226Z,100380.00
2018-11-29T21:25:49.183Z,100371.00
2018-11-29T21:28:17.482Z,100377.00
2018-11-29T21:30:45.824Z,100377.00
2018-11-29T21:33:14.119Z,100387.00
2018-11-29T21:35:42.525Z,100369.00
2018-11-29T21:38:15.720Z,100377.00
2018-11-29T21:41:03.338Z,100373.00
2018-11-29T21:43:31.654Z,100355.00
2018-11-29T21:46:00.018Z,100354.00
2018-11-29T21:48:28.430Z,100347.00
2018-11-29T21:50:56.767Z,100349.00
2018-11-29T21:53:25.142Z,100349.00
2018-11-29T21:55:53.476Z,100344.00
2018-11-29T21:58:21.807Z,100336.00
2018-11-29T22:00:50.083Z,100340.00
2018-11-29T22:03:18.458Z,100337.00
2018-11-29T22:05:46.670Z,100339.00
2018-11-29T22:08:14.983Z,100335.00
2018-11-29T22:10:43.255Z,100338.00
2018-11-29T22:13:11.478Z,100324.00
2018-11-29T22:15:39.709Z,100324.00
2018-11-29T22:18:18.795Z,100330.00
2018-11-29T22:20:52.210Z,100335.00
2018-11-29T22:23:20.519Z,100342.00
2018-11-29T22:25:48.753Z,100337.00
2018-11-29T22:28:17.133Z,100343.00
2018-11-29T22:30:45.545Z,100330.00
2018-11-29T22:33:13.866Z,100318.00
2018-11-29T22:35:42.209Z,100315.00
2018-11-29T22:38:10.410Z,100326.00
2018-11-29T22:40:38.806Z,100323.00
2018-11-29T22:43:07.051Z,100324.00
2018-11-29T22:45:35.296Z,100322.00
2018-11-29T22:48:03.569Z,100317.00
2018-11-29T22:50:31.908Z,100312.00
2018-11-29T22:53:00.167Z,100305.00
2018-11-29T22:55:28.430Z,100308.00
2018-11-29T22:57:56.744Z,100304.00
2018-11-29T23:00:25.283Z,100302.00
2018-11-29T23:02:53.549Z,100304.00
2018-11-29T23:05:22.279Z,100320.00
2018-11-29T23:07:50.464Z,100322.00
2018-11-29T23:10:18.657Z,100308.00
2018-11-29T23:12:46.880Z,100312.00
2018-11-29T23:15:15.222Z,100314.00
2018-11-29T23:17:43.387Z,100322.00
2018-11-29T23:20:12.491Z,100331.00
2018-11-29T23:22:40.971Z,100335.00
2018-11-29T23:25:12.157Z,100333.00
2018-11-29T23:27:40.525Z,100334.00
2018-11-29T23:30:13.994Z,100330.00
2018-11-29T23:32:42.841Z,100337.00
2018-11-29T23:35:12.704Z,100323.00
2018-11-29T23:37:40.923Z,100334.00
2018-11-29T23:40:16.534Z,100331.00
2018-11-29T23:42:45.272Z,100339.00
2018-11-29T23:45:14.111Z,100341.00
2018-11-29T23:47:42.470Z,100322.00
2018-11-29T23:50:16.331Z,100333.00
2018-11-29T23:52:44.906Z,100340.00
2018-11-29T23:55:15.193Z,100334.00
2018-11-29T23:57:43.466Z,100326.00
